Aviation Digital Data Service (ADDS)

Output produced by METARs form (2320 UTC 18 August 2019)
found at http://www.aviationweather.gov/metar/data/
 
METAR text: WMKE 182300Z VRB03KT 4000 HZ FEW001 FEW014CB SCT015 BKN250 25/24 Q1010
Conditions at: WMKE (KERTEH , MY) observed 2300 UTC 18 August 2019
Temperature: 25.0°C (77°F)
Dewpoint: 24.0°C (75°F) [RH = 94%]
Pressure (altimeter): 29.82 inches Hg (1010.0 mb)
Winds: variable direction winds at 3 MPH (3 knots; 1.5 m/s)
Visibility: 2.49 miles (4.01 km)
Ceiling: 25000 feet AGL
Clouds: few clouds at 100 feet AGL
few clouds at 1400 feet AGL
scattered clouds at 1500 feet AGL
broken clouds at 25000 feet AGL
Weather: HZ  (haze)

METAR text: WMKE 182200Z AUTO 00000KT //// // 25/25 Q1010
Conditions at: WMKE (KERTEH , MY) observed 2200 UTC 18 August 2019
Temperature: 25.0°C (77°F)
Dewpoint: 25.0°C (77°F) [RH = 100%]
Pressure (altimeter): 29.82 inches Hg (1010.0 mb)
Winds: calm
Visibility: missing
Ceiling: unknown
Clouds: missing
Weather: no significant weather observed at this time

METAR text: WMKE 182100Z AUTO 18003KT 120V240 //// // 26/25 Q1010
Conditions at: WMKE (KERTEH , MY) observed 2100 UTC 18 August 2019
Temperature: 26.0°C (79°F)
Dewpoint: 25.0°C (77°F) [RH = 94%]
Pressure (altimeter): 29.82 inches Hg (1010.0 mb)
Winds: from the S (180 degrees) at 3 MPH (3 knots; 1.5 m/s)
Visibility: missing
Ceiling: unknown
Clouds: missing
Weather: no significant weather observed at this time

METAR text: WMKE 182000Z AUTO 00000KT //// // 26/25 Q1010
Conditions at: WMKE (KERTEH , MY) observed 2000 UTC 18 August 2019
Temperature: 26.0°C (79°F)
Dewpoint: 25.0°C (77°F) [RH = 94%]
Pressure (altimeter): 29.82 inches Hg (1010.0 mb)
Winds: calm
Visibility: missing
Ceiling: unknown
Clouds: missing
Weather: no significant weather observed at this time

METAR text: WMKE 181900Z AUTO 00000KT //// // 25/25 Q1010
Conditions at: WMKE (KERTEH , MY) observed 1900 UTC 18 August 2019
Temperature: 25.0°C (77°F)
Dewpoint: 25.0°C (77°F) [RH = 100%]
Pressure (altimeter): 29.82 inches Hg (1010.0 mb)
Winds: calm
Visibility: missing
Ceiling: unknown
Clouds: missing
Weather: no significant weather observed at this time

METAR text: WMKE 181800Z AUTO 00000KT //// // 26/25 Q1011
Conditions at: WMKE (KERTEH , MY) observed 1800 UTC 18 August 2019
Temperature: 26.0°C (79°F)
Dewpoint: 25.0°C (77°F) [RH = 94%]
Pressure (altimeter): 29.85 inches Hg (1011.0 mb)
Winds: calm
Visibility: missing
Ceiling: unknown
Clouds: missing
Weather: no significant weather observed at this time

METAR text: WMKE 181700Z AUTO 00000KT //// // 26/25 Q1012
Conditions at: WMKE (KERTEH , MY) observed 1700 UTC 18 August 2019
Temperature: 26.0°C (79°F)
Dewpoint: 25.0°C (77°F) [RH = 94%]
Pressure (altimeter): 29.88 inches Hg (1012.0 mb)
Winds: calm
Visibility: missing
Ceiling: unknown
Clouds: missing
Weather: no significant weather observed at this time

METAR text: WMKE 181600Z AUTO 00000KT //// // 26/25 Q1012
Conditions at: WMKE (KERTEH , MY) observed 1600 UTC 18 August 2019
Temperature: 26.0°C (79°F)
Dewpoint: 25.0°C (77°F) [RH = 94%]
Pressure (altimeter): 29.88 inches Hg (1012.0 mb)
Winds: calm
Visibility: missing
Ceiling: unknown
Clouds: missing
Weather: no significant weather observed at this time

METAR text: WMKE 181500Z AUTO 00000KT //// // 26/25 Q1012
Conditions at: WMKE (KERTEH , MY) observed 1500 UTC 18 August 2019
Temperature: 26.0°C (79°F)
Dewpoint: 25.0°C (77°F) [RH = 94%]
Pressure (altimeter): 29.88 inches Hg (1012.0 mb)
Winds: calm
Visibility: missing
Ceiling: unknown
Clouds: missing
Weather: no significant weather observed at this time

METAR text: WMKE 181400Z AUTO 00000KT //// // 27/26 Q1011
Conditions at: WMKE (KERTEH , MY) observed 1400 UTC 18 August 2019
Temperature: 27.0°C (81°F)
Dewpoint: 26.0°C (79°F) [RH = 94%]
Pressure (altimeter): 29.85 inches Hg (1011.0 mb)
Winds: calm
Visibility: missing
Ceiling: unknown
Clouds: missing
Weather: no significant weather observed at this time

METAR text: WMKE 181300Z AUTO 00000KT //// // 27/26 Q1011
Conditions at: WMKE (KERTEH , MY) observed 1300 UTC 18 August 2019
Temperature: 27.0°C (81°F)
Dewpoint: 26.0°C (79°F) [RH = 94%]
Pressure (altimeter): 29.85 inches Hg (1011.0 mb)
Winds: calm
Visibility: missing
Ceiling: unknown
Clouds: missing
Weather: no significant weather observed at this time

METAR text: WMKE 181200Z AUTO VRB01KT //// // 28/26 Q1010
Conditions at: WMKE (KERTEH , MY) observed 1200 UTC 18 August 2019
Temperature: 28.0°C (82°F)
Dewpoint: 26.0°C (79°F) [RH = 89%]
Pressure (altimeter): 29.82 inches Hg (1010.0 mb)
Winds: variable direction winds at 1 MPH (1 knots; 0.5 m/s)
Visibility: missing
Ceiling: unknown
Clouds: missing
Weather: no significant weather observed at this time

METAR text: WMKE 181100Z VRB03KT 9999 SCT015 SCT140 BKN260 29/26 Q1009
Conditions at: WMKE (KERTEH , MY) observed 1100 UTC 18 August 2019
Temperature: 29.0°C (84°F)
Dewpoint: 26.0°C (79°F) [RH = 84%]
Pressure (altimeter): 29.79 inches Hg (1009.0 mb)
Winds: variable direction winds at 3 MPH (3 knots; 1.5 m/s)
Visibility: 6 or more miles (10+ km)
Ceiling: 26000 feet AGL
Clouds: scattered clouds at 1500 feet AGL
scattered clouds at 14000 feet AGL
broken clouds at 26000 feet AGL
Weather: no significant weather observed at this time

METAR text: WMKE 181000Z 12006KT 060V190 9999 FEW015 SCT140 BKN260 30/26 Q1008
Conditions at: WMKE (KERTEH , MY) observed 1000 UTC 18 August 2019
Temperature: 30.0°C (86°F)
Dewpoint: 26.0°C (79°F) [RH = 79%]
Pressure (altimeter): 29.76 inches Hg (1008.0 mb)
Winds: from the ESE (120 degrees) at 7 MPH (6 knots; 3.1 m/s)
Visibility: 6 or more miles (10+ km)
Ceiling: 26000 feet AGL
Clouds: few clouds at 1500 feet AGL
scattered clouds at 14000 feet AGL
broken clouds at 26000 feet AGL
Weather: no significant weather observed at this time

METAR text: WMKE 180900Z 12006KT 060V190 9999 FEW015 BKN260 31/27 Q1009
Conditions at: WMKE (KERTEH , MY) observed 0900 UTC 18 August 2019
Temperature: 31.0°C (88°F)
Dewpoint: 27.0°C (81°F) [RH = 79%]
Pressure (altimeter): 29.79 inches Hg (1009.0 mb)
Winds: from the ESE (120 degrees) at 7 MPH (6 knots; 3.1 m/s)
Visibility: 6 or more miles (10+ km)
Ceiling: 26000 feet AGL
Clouds: few clouds at 1500 feet AGL
broken clouds at 26000 feet AGL
Weather: no significant weather observed at this time

METAR text: WMKE 180800Z 13007KT 030V190 9999 FEW015 BKN260 32/27 Q1009
Conditions at: WMKE (KERTEH , MY) observed 0800 UTC 18 August 2019
Temperature: 32.0°C (90°F)
Dewpoint: 27.0°C (81°F) [RH = 75%]
Pressure (altimeter): 29.79 inches Hg (1009.0 mb)
Winds: from the SE (130 degrees) at 8 MPH (7 knots; 3.6 m/s)
Visibility: 6 or more miles (10+ km)
Ceiling: 26000 feet AGL
Clouds: few clouds at 1500 feet AGL
broken clouds at 26000 feet AGL
Weather: no significant weather observed at this time

METAR text: WMKE 180700Z VRB06KT 8000 SCT015 SCT140 BKN260 33/28 Q1010
Conditions at: WMKE (KERTEH , MY) observed 0700 UTC 18 August 2019
Temperature: 33.0°C (91°F)
Dewpoint: 28.0°C (82°F) [RH = 75%]
Pressure (altimeter): 29.82 inches Hg (1010.0 mb)
Winds: variable direction winds at 7 MPH (6 knots; 3.1 m/s)
Visibility: 5 miles ( 8 km)
Ceiling: 26000 feet AGL
Clouds: scattered clouds at 1500 feet AGL
scattered clouds at 14000 feet AGL
broken clouds at 26000 feet AGL
Weather: no significant weather observed at this time

METAR text: WMKE 180600Z 11006KT 060V160 7000 SCT015 SCT140 BKN260 33/27 Q1010
Conditions at: WMKE (KERTEH , MY) observed 0600 UTC 18 August 2019
Temperature: 33.0°C (91°F)
Dewpoint: 27.0°C (81°F) [RH = 71%]
Pressure (altimeter): 29.82 inches Hg (1010.0 mb)
Winds: from the ESE (110 degrees) at 7 MPH (6 knots; 3.1 m/s)
Visibility: 4 miles ( 7 km)
Ceiling: 26000 feet AGL
Clouds: scattered clouds at 1500 feet AGL
scattered clouds at 14000 feet AGL
broken clouds at 26000 feet AGL
Weather: no significant weather observed at this time

METAR text: WMKE 180500Z VRB06KT 8000 FEW014CB SCT015 BKN260 33/27 Q1011
Conditions at: WMKE (KERTEH , MY) observed 0500 UTC 18 August 2019
Temperature: 33.0°C (91°F)
Dewpoint: 27.0°C (81°F) [RH = 71%]
Pressure (altimeter): 29.85 inches Hg (1011.0 mb)
Winds: variable direction winds at 7 MPH (6 knots; 3.1 m/s)
Visibility: 5 miles ( 8 km)
Ceiling: 26000 feet AGL
Clouds: few clouds at 1400 feet AGL
scattered clouds at 1500 feet AGL
broken clouds at 26000 feet AGL
Weather: no significant weather observed at this time

METAR text: WMKE 180400Z VRB04KT 9999 SCT015 SCT140 BKN260 33/28 Q1011
Conditions at: WMKE (KERTEH , MY) observed 0400 UTC 18 August 2019
Temperature: 33.0°C (91°F)
Dewpoint: 28.0°C (82°F) [RH = 75%]
Pressure (altimeter): 29.85 inches Hg (1011.0 mb)
Winds: variable direction winds at 5 MPH (4 knots; 2.1 m/s)
Visibility: 6 or more miles (10+ km)
Ceiling: 26000 feet AGL
Clouds: scattered clouds at 1500 feet AGL
scattered clouds at 14000 feet AGL
broken clouds at 26000 feet AGL
Weather: no significant weather observed at this time

METAR text: WMKE 180300Z VRB03KT 9999 SCT015 SCT140 BKN260 33/27 Q1012
Conditions at: WMKE (KERTEH , MY) observed 0300 UTC 18 August 2019
Temperature: 33.0°C (91°F)
Dewpoint: 27.0°C (81°F) [RH = 71%]
Pressure (altimeter): 29.88 inches Hg (1012.0 mb)
Winds: variable direction winds at 3 MPH (3 knots; 1.5 m/s)
Visibility: 6 or more miles (10+ km)
Ceiling: 26000 feet AGL
Clouds: scattered clouds at 1500 feet AGL
scattered clouds at 14000 feet AGL
broken clouds at 26000 feet AGL
Weather: no significant weather observed at this time

METAR text: WMKE 180200Z VRB01KT 8000 FEW014 SCT140 BKN270 31/27 Q1012
Conditions at: WMKE (KERTEH , MY) observed 0200 UTC 18 August 2019
Temperature: 31.0°C (88°F)
Dewpoint: 27.0°C (81°F) [RH = 79%]
Pressure (altimeter): 29.88 inches Hg (1012.0 mb)
Winds: variable direction winds at 1 MPH (1 knots; 0.5 m/s)
Visibility: 5 miles ( 8 km)
Ceiling: 27000 feet AGL
Clouds: few clouds at 1400 feet AGL
scattered clouds at 14000 feet AGL
broken clouds at 27000 feet AGL
Weather: no significant weather observed at this time

METAR text: WMKE 180100Z VRB01KT 7000 FEW014 SCT140 BKN260 28/25 Q1012
Conditions at: WMKE (KERTEH , MY) observed 0100 UTC 18 August 2019
Temperature: 28.0°C (82°F)
Dewpoint: 25.0°C (77°F) [RH = 84%]
Pressure (altimeter): 29.88 inches Hg (1012.0 mb)
Winds: variable direction winds at 1 MPH (1 knots; 0.5 m/s)
Visibility: 4 miles ( 7 km)
Ceiling: 26000 feet AGL
Clouds: few clouds at 1400 feet AGL
scattered clouds at 14000 feet AGL
broken clouds at 26000 feet AGL
Weather: no significant weather observed at this time

METAR text: WMKE 180000Z VRB02KT 6000 SCT015 SCT140 BKN260 26/24 Q1012
Conditions at: WMKE (KERTEH , MY) observed 0000 UTC 18 August 2019
Temperature: 26.0°C (79°F)
Dewpoint: 24.0°C (75°F) [RH = 89%]
Pressure (altimeter): 29.88 inches Hg (1012.0 mb)
Winds: variable direction winds at 2 MPH (2 knots; 1.0 m/s)
Visibility: 4 miles ( 6 km)
Ceiling: 26000 feet AGL
Clouds: scattered clouds at 1500 feet AGL
scattered clouds at 14000 feet AGL
broken clouds at 26000 feet AGL
Weather: no significant weather observed at this time

METAR text: WMKE 172300Z VRB01KT 6000 FEW001 SCT014 BKN260 24/23 Q1011
Conditions at: WMKE (KERTEH , MY) observed 2300 UTC 17 August 2019
Temperature: 24.0°C (75°F)
Dewpoint: 23.0°C (73°F) [RH = 94%]
Pressure (altimeter): 29.85 inches Hg (1011.0 mb)
Winds: variable direction winds at 1 MPH (1 knots; 0.5 m/s)
Visibility: 4 miles ( 6 km)
Ceiling: 26000 feet AGL
Clouds: few clouds at 100 feet AGL
scattered clouds at 1400 feet AGL
broken clouds at 26000 feet AGL
Weather: no significant weather observed at this time

METAR text: WMKE 172200Z AUTO VRB02KT //// // 24/23 Q1011
Conditions at: WMKE (KERTEH , MY) observed 2200 UTC 17 August 2019
Temperature: 24.0°C (75°F)
Dewpoint: 23.0°C (73°F) [RH = 94%]
Pressure (altimeter): 29.85 inches Hg (1011.0 mb)
Winds: variable direction winds at 2 MPH (2 knots; 1.0 m/s)
Visibility: missing
Ceiling: unknown
Clouds: missing
Weather: no significant weather observed at this time

METAR text: WMKE 172100Z AUTO VRB01KT //// // 24/23 Q1010
Conditions at: WMKE (KERTEH , MY) observed 2100 UTC 17 August 2019
Temperature: 24.0°C (75°F)
Dewpoint: 23.0°C (73°F) [RH = 94%]
Pressure (altimeter): 29.82 inches Hg (1010.0 mb)
Winds: variable direction winds at 1 MPH (1 knots; 0.5 m/s)
Visibility: missing
Ceiling: unknown
Clouds: missing
Weather: no significant weather observed at this time

METAR text: WMKE 172000Z AUTO 00000KT //// // 24/23 Q1010
Conditions at: WMKE (KERTEH , MY) observed 2000 UTC 17 August 2019
Temperature: 24.0°C (75°F)
Dewpoint: 23.0°C (73°F) [RH = 94%]
Pressure (altimeter): 29.82 inches Hg (1010.0 mb)
Winds: calm
Visibility: missing
Ceiling: unknown
Clouds: missing
Weather: no significant weather observed at this time

METAR text: WMKE 171900Z AUTO VRB02KT //// // 24/23 Q1010
Conditions at: WMKE (KERTEH , MY) observed 1900 UTC 17 August 2019
Temperature: 24.0°C (75°F)
Dewpoint: 23.0°C (73°F) [RH = 94%]
Pressure (altimeter): 29.82 inches Hg (1010.0 mb)
Winds: variable direction winds at 2 MPH (2 knots; 1.0 m/s)
Visibility: missing
Ceiling: unknown
Clouds: missing
Weather: no significant weather observed at this time

METAR text: WMKE 171800Z AUTO 00000KT //// // 24/23 Q1011
Conditions at: WMKE (KERTEH , MY) observed 1800 UTC 17 August 2019
Temperature: 24.0°C (75°F)
Dewpoint: 23.0°C (73°F) [RH = 94%]
Pressure (altimeter): 29.85 inches Hg (1011.0 mb)
Winds: calm
Visibility: missing
Ceiling: unknown
Clouds: missing
Weather: no significant weather observed at this time

METAR text: WMKE 171700Z AUTO 00000KT //// // 24/23 Q1011
Conditions at: WMKE (KERTEH , MY) observed 1700 UTC 17 August 2019
Temperature: 24.0°C (75°F)
Dewpoint: 23.0°C (73°F) [RH = 94%]
Pressure (altimeter): 29.85 inches Hg (1011.0 mb)
Winds: calm
Visibility: missing
Ceiling: unknown
Clouds: missing
Weather: no significant weather observed at this time

METAR text: WMKE 171600Z AUTO VRB02KT //// // 24/23 Q1011
Conditions at: WMKE (KERTEH , MY) observed 1600 UTC 17 August 2019
Temperature: 24.0°C (75°F)
Dewpoint: 23.0°C (73°F) [RH = 94%]
Pressure (altimeter): 29.85 inches Hg (1011.0 mb)
Winds: variable direction winds at 2 MPH (2 knots; 1.0 m/s)
Visibility: missing
Ceiling: unknown
Clouds: missing
Weather: no significant weather observed at this time

METAR text: WMKE 171500Z AUTO 00000KT //// // 25/23 Q1011
Conditions at: WMKE (KERTEH , MY) observed 1500 UTC 17 August 2019
Temperature: 25.0°C (77°F)
Dewpoint: 23.0°C (73°F) [RH = 89%]
Pressure (altimeter): 29.85 inches Hg (1011.0 mb)
Winds: calm
Visibility: missing
Ceiling: unknown
Clouds: missing
Weather: no significant weather observed at this time

METAR text: WMKE 171400Z AUTO 00000KT //// // 26/24 Q1010
Conditions at: WMKE (KERTEH , MY) observed 1400 UTC 17 August 2019
Temperature: 26.0°C (79°F)
Dewpoint: 24.0°C (75°F) [RH = 89%]
Pressure (altimeter): 29.82 inches Hg (1010.0 mb)
Winds: calm
Visibility: missing
Ceiling: unknown
Clouds: missing
Weather: no significant weather observed at this time

METAR text: WMKE 171300Z AUTO VRB02KT //// // 27/24 Q1010
Conditions at: WMKE (KERTEH , MY) observed 1300 UTC 17 August 2019
Temperature: 27.0°C (81°F)
Dewpoint: 24.0°C (75°F) [RH = 84%]
Pressure (altimeter): 29.82 inches Hg (1010.0 mb)
Winds: variable direction winds at 2 MPH (2 knots; 1.0 m/s)
Visibility: missing
Ceiling: unknown
Clouds: missing
Weather: no significant weather observed at this time

METAR text: WMKE 171200Z AUTO VRB03KT //// // 28/24 Q1010
Conditions at: WMKE (KERTEH , MY) observed 1200 UTC 17 August 2019
Temperature: 28.0°C (82°F)
Dewpoint: 24.0°C (75°F) [RH = 79%]
Pressure (altimeter): 29.82 inches Hg (1010.0 mb)
Winds: variable direction winds at 3 MPH (3 knots; 1.5 m/s)
Visibility: missing
Ceiling: unknown
Clouds: missing
Weather: no significant weather observed at this time

Forecast for: WMKE (KERTEH , MY)
Text: TAF WMKE 182300Z 1900/2000 VRB05KT 9999 FEW014
Forecast period: 0000 to 0500 UTC 19 August 2019
Forecast type: FROM: standard forecast or significant change
Winds: variable direction winds at 6 MPH (5 knots; 2.6 m/s)
Visibility: 6 or more miles 10+ km)
Ceiling: at least 12,000 feet AGL
Clouds: few clouds at 1400 feet AGL
Weather: no significant weather forecast for this period
Text: BECMG 1905/1907 12008KT FEW018
Forecast period: 0500 UTC 19 August 2019 to 0000 UTC 20 August 2019
Forecast type: BECOMING: Conditions expected to become as follows by 0700 UTC 19 August 2019
Winds: from the ESE (120 degrees) at 9 MPH (8 knots; 4.1 m/s)
Visibility: 6 or more miles 10+ km)
Ceiling: at least 12,000 feet AGL
Clouds: few clouds at 1800 feet AGL
Weather: no significant weather forecast for this period